Terminal Aerodrome Forecast
Issued by NWS

Home | Current Version | Previous Version | Text Only | Print | Product List | Glossary On
Versions: 1 2 3 4 5 6 7 8 9 10 11 12 13 14 15 16 17 18 19 20 21 22 23 24 25 26
000
FTUS41 KOKX 270522
TAFHPN
TAF
KHPN 270522Z 2706/2806 34010KT 4SM -SHRA BR BKN009
     FM271300 33009KT P6SM SCT015 SCT030 BKN080
      TEMPO 2713/2715 BKN030
     FM271800 33007KT P6SM BKN035 BKN120
      AMD NOT SKED=

USA.gov is the U.S. government's official web portal to all federal, state and local government web resources and services.